Time;durP1;ratioP1;P1;durP2;ratioP2;P2;SDS_P1;SDS_P2;PMS_P1;PMS_P2;Temp;Humidity;BMP_temperature;BMP_pressure;BME280_temperature;BME280_humidity;BME280_pressure;Samples;Min_cycle;Max_cycle;Signal;HPM_P1;HPM_P2
2022/12/25 00:00:08;;;;;;;30.75;9.93;;;;;;;7.03;100.00;101294.47;5123454;27;20035;-72
2022/12/25 00:02:34;;;;;;;30.88;10.13;;;;;;;7.05;100.00;101291.03;5125353;27;20363;-73
2022/12/25 00:04:59;;;;;;;31.38;10.00;;;;;;;7.08;100.00;101277.97;5124198;27;20023;-72
2022/12/25 00:07:24;;;;;;;31.80;10.40;;;;;;;7.08;100.00;101277.09;5123968;27;20030;-72
2022/12/25 00:09:50;;;;;;;28.75;9.35;;;;;;;7.09;100.00;101279.75;5125453;27;20027;-72
2022/12/25 00:12:15;;;;;;;28.08;9.40;;;;;;;7.10;100.00;101285.88;5122481;27;20046;-72
2022/12/25 00:14:40;;;;;;;28.55;9.63;;;;;;;7.12;100.00;101284.16;5126080;27;20119;-72
2022/12/25 00:17:06;;;;;;;28.92;10.48;;;;;;;7.11;100.00;101278.03;5122971;27;20061;-72
2022/12/25 00:19:31;;;;;;;30.38;10.15;;;;;;;7.08;100.00;101292.84;5124664;27;20031;-72
2022/12/25 00:21:56;;;;;;;30.42;10.25;;;;;;;7.05;100.00;101282.22;5124440;27;20047;-72
2022/12/25 00:24:22;;;;;;;31.98;10.60;;;;;;;7.03;100.00;101286.56;5123365;27;20389;-72
2022/12/25 00:26:47;;;;;;;28.98;10.23;;;;;;;7.03;100.00;101278.69;5125686;27;20421;-73
2022/12/25 00:29:12;;;;;;;30.05;10.23;;;;;;;7.03;100.00;101283.94;5122368;27;20126;-73
2022/12/25 00:31:38;;;;;;;31.00;10.23;;;;;;;7.06;100.00;101281.41;5125080;27;20035;-74
2022/12/25 00:34:04;;;;;;;30.35;10.82;;;;;;;7.07;100.00;101286.69;5123140;27;20023;-72
2022/12/25 00:36:29;;;;;;;31.52;10.73;;;;;;;7.10;100.00;101278.00;5123980;27;20378;-73
2022/12/25 00:38:54;;;;;;;31.67;11.40;;;;;;;7.05;100.00;101283.16;5124634;27;20466;-73
2022/12/25 00:44:10;;;;;;;35.92;11.80;;;;;;;7.06;100.00;101273.50;5077881;27;20142;-74
2022/12/25 00:46:35;;;;;;;34.05;11.40;;;;;;;7.08;100.00;101279.72;5124671;27;20024;-74
2022/12/25 00:49:01;;;;;;;32.53;11.40;;;;;;;7.07;100.00;101270.91;5123272;27;20381;-74
2022/12/25 00:51:27;;;;;;;32.95;11.27;;;;;;;7.06;100.00;101274.41;5123411;27;20031;-74
2022/12/25 00:53:52;;;;;;;31.55;12.05;;;;;;;7.09;100.00;101286.72;5124421;27;20096;-73
2022/12/25 00:56:18;;;;;;;30.52;11.40;;;;;;;7.08;100.00;101282.34;5121934;27;20035;-74
2022/12/25 00:58:43;;;;;;;33.63;11.88;;;;;;;7.06;100.00;101266.53;5125501;27;20019;-74
2022/12/25 01:01:10;;;;;;;32.70;11.85;;;;;;;7.05;100.00;101267.38;5122030;27;20028;-74
2022/12/25 01:03:35;;;;;;;33.10;12.45;;;;;;;7.04;100.00;101265.59;5124542;27;20449;-71
2022/12/25 01:06:04;;;;;;;35.00;12.70;;;;;;;7.04;100.00;101265.59;5123210;27;20054;-72
2022/12/25 01:08:33;;;;;;;33.53;12.50;;;;;;;7.04;100.00;101264.72;5123321;27;20030;-72
2022/12/25 01:11:01;;;;;;;32.70;12.23;;;;;;;7.02;100.00;101261.13;5123277;27;20076;-72
2022/12/25 01:13:27;;;;;;;33.38;12.82;;;;;;;7.01;100.00;101255.00;5123010;28;20478;-72
2022/12/25 01:15:53;;;;;;;38.40;12.50;;;;;;;7.01;100.00;101254.13;5124201;28;20031;-72
2022/12/25 01:18:20;;;;;;;32.15;12.35;;;;;;;6.99;100.00;101264.59;5121694;28;20080;-72
2022/12/25 01:20:46;;;;;;;32.92;12.15;;;;;;;6.96;100.00;101262.78;5125275;28;20061;-72
2022/12/25 01:23:12;;;;;;;33.75;12.38;;;;;;;7.00;100.00;101257.59;5117107;28;20052;-72
2022/12/25 01:25:37;;;;;;;36.70;13.73;;;;;;;7.02;100.00;101261.13;5124338;28;20044;-72
2022/12/25 01:28:03;;;;;;;36.35;13.10;;;;;;;7.01;100.00;101265.50;5122841;28;20027;-72
2022/12/25 01:30:30;;;;;;;32.25;12.65;;;;;;;7.05;100.00;101271.72;5104600;28;20460;-73
2022/12/25 01:32:55;;;;;;;32.97;13.05;;;;;;;7.08;100.00;101272.69;5123711;28;20031;-72
2022/12/25 01:35:21;;;;;;;34.00;13.45;;;;;;;7.11;100.00;101282.41;5122005;28;20068;-72
2022/12/25 01:37:46;;;;;;;36.45;14.05;;;;;;;7.15;100.00;101286.91;5124881;28;20114;-72
2022/12/25 01:40:11;;;;;;;33.28;13.50;;;;;;;7.19;100.00;101279.97;5121344;28;20383;-72
2022/12/25 01:42:37;;;;;;;32.30;13.77;;;;;;;7.23;100.00;101280.06;5124154;28;20466;-72
2022/12/25 01:45:24;;;;;;;34.60;14.15;;;;;;;7.24;100.00;101284.50;5104623;28;20381;-72
2022/12/25 01:47:49;;;;;;;32.80;13.70;;;;;;;7.26;100.00;101280.16;5118351;28;20034;-72
2022/12/25 01:50:15;;;;;;;34.58;13.88;;;;;;;7.28;100.00;101290.72;5124702;28;20031;-72
2022/12/25 01:52:41;;;;;;;35.28;14.10;;;;;;;7.29;100.00;101297.75;5121424;28;20085;-72
2022/12/25 01:55:08;;;;;;;31.98;13.65;;;;;;;7.32;100.00;101301.38;5124085;28;20062;-72
2022/12/25 01:57:37;;;;;;;33.65;12.95;;;;;;;7.33;100.00;101311.00;5122297;28;20032;-72
2022/12/25 02:00:05;;;;;;;33.83;13.23;;;;;;;7.33;100.00;101311.00;5123425;28;20103;-72
2022/12/25 02:02:30;;;;;;;31.88;13.30;;;;;;;7.37;100.00;101311.09;5122749;28;20061;-72
2022/12/25 02:05:06;;;;;;;29.05;12.52;;;;;;;7.42;100.00;101302.47;5122251;28;20322;-72
2022/12/25 02:07:34;;;;;;;31.50;12.35;;;;;;;7.39;100.00;101304.16;5123107;28;20099;-73
2022/12/25 02:09:59;;;;;;;29.33;12.68;;;;;;;7.39;100.00;101309.41;5123086;28;20023;-72
2022/12/25 02:12:28;;;;;;;29.48;12.05;;;;;;;7.42;100.00;101309.47;5123266;28;20042;-73
2022/12/25 02:14:57;;;;;;;29.83;12.02;;;;;;;7.39;100.00;101307.66;5122036;28;20020;-73
2022/12/25 02:17:35;;;;;;;30.23;11.90;;;;;;;7.39;100.00;101310.28;5124038;28;20035;-73
2022/12/25 02:20:24;;;;;;;32.08;12.00;;;;;;;7.38;100.00;101318.13;5126150;27;20020;-73
2022/12/25 02:23:04;;;;;;;30.80;12.18;;;;;;;7.39;100.00;101309.41;5121696;27;20150;-73
2022/12/25 02:25:37;;;;;;;31.73;12.63;;;;;;;7.43;100.00;101314.78;5126459;27;20019;-73
2022/12/25 02:28:09;;;;;;;29.05;12.40;;;;;;;7.42;100.00;101320.00;5126772;27;20114;-73
2022/12/25 02:30:40;;;;;;;32.35;12.68;;;;;;;7.40;100.00;101314.69;5125506;27;20027;-73
2022/12/25 02:36:02;;;;;;;32.10;12.02;;;;;;;7.41;100.00;101315.59;5123917;27;20062;-74
2022/12/25 02:38:36;;;;;;;29.80;11.80;;;;;;;7.40;100.00;101300.66;5126880;27;20362;-74
2022/12/25 02:41:10;;;;;;;31.42;12.35;;;;;;;7.40;100.00;101305.94;5126336;27;20028;-73
2022/12/25 03:11:29;;;;;;;30.15;12.70;;;;;;;7.33;100.00;101247.88;5106453;27;20042;-74
2022/12/25 03:11:45;;;;;;;30.48;12.98;;;;;;;7.25;100.00;101246.84;5123786;27;20178;-73
2022/12/25 03:16:57;;;;;;;32.30;12.93;;;;;;;7.19;100.00;101223.00;5122388;27;20500;-74
2022/12/25 03:27:53;;;;;;;29.23;11.45;;;;;;;7.00;100.00;101215.53;5100976;27;20500;-74
2022/12/25 03:33:19;;;;;;;25.00;10.80;;;;;;;6.83;100.00;101197.59;5124238;27;20041;-73
2022/12/25 03:36:18;;;;;;;27.63;11.15;;;;;;;6.81;100.00;101199.28;5125255;27;20027;-73
2022/12/25 04:37:26;;;;;;;23.77;8.80;;;;;;;6.89;100.00;101196.88;5118565;27;20184;-73
2022/12/25 04:39:51;;;;;;;24.25;8.18;;;;;;;6.92;100.00;101200.44;5125299;27;20058;-73
2022/12/25 04:42:16;;;;;;;25.00;8.55;;;;;;;6.97;100.00;101204.09;5122646;27;20027;-73
2022/12/25 04:44:42;;;;;;;23.98;8.27;;;;;;;6.98;100.00;101203.22;5124078;27;20110;-73
2022/12/25 04:47:07;;;;;;;24.35;8.05;;;;;;;6.96;100.00;101196.16;5105841;27;20023;-73
2022/12/25 04:49:32;;;;;;;22.58;7.50;;;;;;;7.04;100.00;101191.97;5122929;27;20027;-73
2022/12/25 04:51:58;;;;;;;23.75;7.10;;;;;;;7.07;100.00;101183.28;5125215;27;20461;-73
2022/12/25 04:54:23;;;;;;;23.55;7.38;;;;;;;7.00;100.00;101190.13;5122237;27;20078;-71
2022/12/25 04:56:48;;;;;;;22.52;6.90;;;;;;;7.02;100.00;101192.78;5124852;27;20076;-71
2022/12/25 04:59:14;;;;;;;22.25;6.95;;;;;;;6.96;100.00;101186.53;5122968;27;20030;-71
2022/12/25 05:01:39;;;;;;;21.83;6.78;;;;;;;6.94;100.00;101180.34;5123454;27;20111;-71
2022/12/25 05:04:05;;;;;;;21.77;6.60;;;;;;;6.88;100.00;101177.56;5124177;27;20027;-71
2022/12/25 05:06:30;;;;;;;21.38;6.53;;;;;;;6.94;100.00;101175.06;5122099;27;20070;-71
2022/12/25 05:08:56;;;;;;;21.27;6.45;;;;;;;6.96;100.00;101188.25;5125357;27;20015;-71
2022/12/25 05:11:22;;;;;;;20.38;6.20;;;;;;;6.96;100.00;101180.38;5121594;27;20035;-71
2022/12/25 05:13:47;;;;;;;20.80;6.65;;;;;;;7.00;100.00;101183.97;5124163;28;20115;-71
2022/12/25 05:16:16;;;;;;;22.70;6.85;;;;;;;7.07;100.00;101175.41;5123193;28;20102;-71
2022/12/25 05:18:42;;;;;;;20.42;6.10;;;;;;;7.14;100.00;101175.56;5123385;28;20024;-71
2022/12/25 05:21:10;;;;;;;19.42;6.18;;;;;;;7.18;100.00;101183.53;5105389;28;20031;-71
2022/12/25 05:23:35;;;;;;;21.08;6.38;;;;;;;7.22;100.00;101175.72;5122453;28;20073;-71
2022/12/25 05:26:05;;;;;;;21.08;5.70;;;;;;;7.23;100.00;101171.38;5124624;28;20027;-71
2022/12/25 05:28:30;;;;;;;22.83;6.05;;;;;;;7.22;100.00;101161.72;5121680;28;20028;-71
2022/12/25 05:30:56;;;;;;;20.25;6.35;;;;;;;7.21;100.00;101157.28;5125028;28;20023;-71
2022/12/25 05:33:21;;;;;;;20.38;6.05;;;;;;;7.20;100.00;101147.66;5121649;28;20264;-71
2022/12/25 05:35:47;;;;;;;19.30;5.60;;;;;;;7.19;100.00;101130.97;5123892;28;20024;-72
2022/12/25 05:38:12;;;;;;;20.33;5.85;;;;;;;7.23;100.00;101134.56;5123050;28;20099;-71
2022/12/25 05:40:39;;;;;;;20.48;5.93;;;;;;;7.25;100.00;101130.22;5104602;28;20110;-71
2022/12/25 05:43:05;;;;;;;21.23;5.85;;;;;;;7.24;100.00;101137.22;5124183;28;20031;-71
2022/12/25 05:45:30;;;;;;;21.73;5.82;;;;;;;7.26;100.00;101138.16;5121726;28;20027;-71
2022/12/25 05:47:56;;;;;;;22.67;6.30;;;;;;;7.28;100.00;101148.69;5125014;28;20031;-70
2022/12/25 05:50:21;;;;;;;22.08;5.93;;;;;;;7.28;100.00;101144.34;5121529;28;20050;-72
2022/12/25 05:52:46;;;;;;;20.05;5.70;;;;;;;7.31;100.00;101143.50;5123853;28;20077;-71
2022/12/25 05:55:12;;;;;;;20.63;5.78;;;;;;;7.34;100.00;101143.59;5126615;27;20048;-71
2022/12/25 05:57:37;;;;;;;20.48;5.97;;;;;;;7.33;100.00;101142.69;5108550;27;20031;-71
2022/12/25 06:00:04;;;;;;;19.33;5.70;;;;;;;7.35;100.00;101139.22;5128240;27;20051;-71
2022/12/25 06:02:30;;;;;;;19.15;5.57;;;;;;;7.38;100.00;101132.25;5125190;27;20114;-73
2022/12/25 06:04:55;;;;;;;21.05;5.70;;;;;;;7.40;100.00;101134.97;5128850;27;20110;-73
2022/12/25 06:07:20;;;;;;;18.92;5.60;;;;;;;7.40;100.00;101124.44;5125484;27;20038;-73
2022/12/25 06:09:46;;;;;;;19.98;5.28;;;;;;;7.42;100.00;101130.59;5127508;27;20465;-72
2022/12/25 06:12:12;;;;;;;19.98;5.40;;;;;;;7.43;100.00;101133.28;5126649;27;20477;-73
2022/12/25 06:14:37;;;;;;;17.38;5.10;;;;;;;7.44;100.00;101124.53;5126021;27;20020;-72
2022/12/25 06:17:02;;;;;;;19.88;5.30;;;;;;;7.44;100.00;101129.78;5127793;27;20094;-72
2022/12/25 06:19:28;;;;;;;18.15;5.00;;;;;;;7.46;100.00;101121.94;5106707;28;20027;-72
2022/12/25 06:21:54;;;;;;;20.05;5.03;;;;;;;7.47;100.00;101115.78;5127876;27;20060;-72
2022/12/25 06:24:22;;;;;;;19.02;5.45;;;;;;;7.46;100.00;101098.25;5125297;27;20478;-73
2022/12/25 06:26:49;;;;;;;21.50;5.63;;;;;;;7.47;100.00;101092.13;5109270;27;20055;-73
2022/12/25 06:29:14;;;;;;;19.98;5.40;;;;;;;7.47;100.00;101100.00;5125872;27;20483;-73
2022/12/25 06:31:40;;;;;;;18.20;5.30;;;;;;;7.48;100.00;101100.06;5125964;27;20070;-73
2022/12/25 06:34:05;;;;;;;18.90;4.75;;;;;;;7.47;100.00;101098.28;5127122;27;20177;-72
2022/12/25 06:36:31;;;;;;;18.52;5.15;;;;;;;7.49;100.00;101090.44;5106748;27;20024;-73
2022/12/25 06:38:59;;;;;;;19.33;5.07;;;;;;;7.50;100.00;101076.44;5128005;27;20106;-73
2022/12/25 06:41:26;;;;;;;20.60;5.50;;;;;;;7.52;100.00;101077.34;5120321;27;20091;-74
2022/12/25 06:43:54;;;;;;;19.52;4.85;;;;;;;7.53;100.00;101067.69;5127382;27;20034;-73
2022/12/25 06:46:21;;;;;;;19.08;5.07;;;;;;;7.56;100.00;101067.75;5106473;27;20157;-73
2022/12/25 06:48:48;;;;;;;19.80;4.95;;;;;;;7.56;100.00;101076.53;5126770;27;20023;-73
2022/12/25 06:51:27;;;;;;;18.95;4.90;;;;;;;7.57;100.00;101067.81;5125579;27;20034;-73
2022/12/25 06:53:52;;;;;;;18.70;5.00;;;;;;;7.57;100.00;101048.47;5127304;27;20042;-72
2022/12/25 06:56:22;;;;;;;19.75;5.30;;;;;;;7.57;100.00;101035.31;5124994;27;20465;-72
2022/12/25 06:58:50;;;;;;;17.80;4.82;;;;;;;7.58;100.00;101030.09;5108371;27;20023;-73
2022/12/25 07:01:19;;;;;;;18.20;4.82;;;;;;;7.58;100.00;101032.72;5125115;27;20550;-73
2022/12/25 07:03:47;;;;;;;19.35;5.05;;;;;;;7.61;100.00;101034.53;5125892;27;20111;-73
2022/12/25 07:06:13;;;;;;;18.10;4.40;;;;;;;7.60;100.00;101033.66;5125787;27;20023;-74
2022/12/25 07:08:39;;;;;;;19.77;4.93;;;;;;;7.61;100.00;101030.16;5125055;27;20547;-72
2022/12/25 07:11:04;;;;;;;19.33;4.80;;;;;;;7.61;100.00;101032.78;5126650;27;20075;-73
2022/12/25 07:13:29;;;;;;;19.92;4.75;;;;;;;7.61;100.00;101037.16;5123960;27;20024;-73
2022/12/25 07:15:59;;;;;;;16.08;4.50;;;;;;;7.61;100.00;101056.47;5127144;27;20084;-73
2022/12/25 07:18:25;;;;;;;20.35;4.95;;;;;;;7.61;100.00;101043.31;5119367;27;20032;-73
2022/12/25 07:20:54;;;;;;;18.80;4.80;;;;;;;7.62;100.00;101050.34;5126769;27;20027;-74
2022/12/25 07:23:19;;;;;;;17.80;4.80;;;;;;;7.62;100.00;101058.25;5124101;27;20072;-72
2022/12/25 07:25:55;;;;;;;18.35;4.93;;;;;;;7.62;100.00;101066.13;5125602;27;20027;-73
2022/12/25 07:28:20;;;;;;;17.58;4.45;;;;;;;7.61;100.00;101080.13;5124236;27;20030;-72
2022/12/25 07:30:46;;;;;;;17.15;4.70;;;;;;;7.63;100.00;101074.91;5125527;27;20370;-72
2022/12/25 07:33:11;;;;;;;17.38;4.70;;;;;;;7.62;100.00;101087.19;5125437;27;20030;-73
2022/12/25 07:35:36;;;;;;;18.02;4.78;;;;;;;7.61;100.00;101080.13;5106005;27;20031;-72
2022/12/25 07:38:02;;;;;;;16.75;4.55;;;;;;;7.62;100.00;101086.31;5126451;27;20027;-73
2022/12/25 07:40:27;;;;;;;17.98;4.50;;;;;;;7.61;100.00;101071.38;5123412;27;20382;-72
2022/12/25 07:42:52;;;;;;;18.30;4.63;;;;;;;7.58;100.00;101053.78;5126454;27;20023;-73
2022/12/25 07:45:18;;;;;;;18.05;4.97;;;;;;;7.51;100.00;101030.81;5123926;27;20058;-73
2022/12/25 07:47:43;;;;;;;18.08;4.35;;;;;;;7.45;100.00;101036.84;5125173;27;20035;-73
2022/12/25 07:50:09;;;;;;;19.50;4.93;;;;;;;7.43;100.00;101048.22;5125495;27;20027;-73
2022/12/25 07:52:34;;;;;;;17.65;4.95;;;;;;;7.43;100.00;101049.09;5123495;27;20031;-72
2022/12/25 07:54:59;;;;;;;18.80;5.13;;;;;;;7.44;100.00;101063.13;5126467;27;20015;-72
2022/12/25 07:57:25;;;;;;;16.60;4.63;;;;;;;7.44;100.00;101063.13;5118817;27;20477;-73
2022/12/25 07:59:50;;;;;;;18.05;4.85;;;;;;;7.45;100.00;101078.06;5125547;27;20038;-72
2022/12/25 08:02:15;;;;;;;19.73;5.10;;;;;;;7.46;100.00;101095.63;5124253;27;20026;-73
2022/12/25 08:04:41;;;;;;;19.23;5.07;;;;;;;7.46;100.00;101096.50;5106234;27;20063;-73
2022/12/25 08:07:06;;;;;;;20.17;5.30;;;;;;;7.46;100.00;101096.50;5125309;27;20031;-73
2022/12/25 08:09:31;;;;;;;18.63;5.20;;;;;;;7.47;100.00;101097.38;5122952;27;20071;-72
2022/12/25 08:11:57;;;;;;;18.00;4.90;;;;;;;7.47;100.00;101102.63;5125996;27;20486;-73
2022/12/25 08:14:22;;;;;;;18.10;5.03;;;;;;;7.47;100.00;101116.69;5123410;27;20407;-71
2022/12/25 08:16:47;;;;;;;19.17;5.10;;;;;;;7.49;100.00;101122.88;5124384;27;20028;-72
2022/12/25 08:19:13;;;;;;;19.17;5.32;;;;;;;7.49;100.00;101140.41;5124104;27;20107;-72
2022/12/25 08:21:39;;;;;;;19.30;5.10;;;;;;;7.51;100.00;101138.69;5123379;27;20028;-71
2022/12/25 08:24:05;;;;;;;18.42;5.20;;;;;;;7.50;100.00;101129.03;5125689;27;20031;-72
2022/12/25 08:26:30;;;;;;;18.52;5.20;;;;;;;7.52;100.00;101105.41;5122344;27;20099;-72
2022/12/25 08:28:55;;;;;;;20.05;5.40;;;;;;;7.54;100.00;101111.56;5099946;28;20031;-72
2022/12/25 08:31:23;;;;;;;18.05;5.18;;;;;;;7.53;100.00;101117.66;5125454;27;20427;-71
2022/12/25 08:33:52;;;;;;;19.45;5.25;;;;;;;7.55;100.00;101110.72;5123031;27;20035;-72
2022/12/25 08:36:18;;;;;;;19.25;5.15;;;;;;;7.55;100.00;101108.97;5124433;27;20012;-72
2022/12/25 08:38:45;;;;;;;18.55;5.18;;;;;;;7.56;100.00;101102.84;5123859;27;20101;-71
2022/12/25 08:41:11;;;;;;;20.23;5.47;;;;;;;7.57;100.00;101114.25;5123418;27;20051;-72
2022/12/25 08:43:36;;;;;;;19.35;5.18;;;;;;;7.57;100.00;101125.69;5124728;27;20377;-71
2022/12/25 08:46:02;;;;;;;18.38;5.18;;;;;;;7.58;100.00;101132.69;5122451;27;20032;-71
2022/12/25 08:48:27;;;;;;;19.70;5.53;;;;;;;7.58;100.00;101126.56;5125515;27;20027;-71
2022/12/25 08:50:53;;;;;;;21.02;5.68;;;;;;;7.57;100.00;101115.16;5122255;27;20505;-71
2022/12/25 08:53:20;;;;;;;19.38;5.45;;;;;;;7.56;100.00;101125.63;5124562;27;20115;-74
2022/12/25 08:55:45;;;;;;;19.40;5.50;;;;;;;7.53;100.00;101117.66;5123124;27;20027;-74
2022/12/25 08:58:11;;;;;;;21.40;6.50;;;;;;;7.48;100.00;101115.84;5123341;27;20073;-74
2022/12/25 09:00:36;;;;;;;20.67;5.93;;;;;;;7.43;100.00;101101.72;5124412;27;20114;-73
2022/12/25 09:03:03;;;;;;;19.42;5.75;;;;;;;7.40;100.00;101103.41;5122057;27;20046;-72
2022/12/25 09:05:28;;;;;;;21.75;6.07;;;;;;;7.37;100.00;101095.41;5125440;27;20034;-74
2022/12/25 09:07:53;;;;;;;20.65;6.50;;;;;;;7.33;100.00;101090.09;5121928;27;20027;-74
2022/12/25 09:10:19;;;;;;;22.92;6.85;;;;;;;7.32;100.00;101098.84;5124100;28;20106;-74
2022/12/25 09:12:45;;;;;;;24.13;6.68;;;;;;;7.30;100.00;101082.13;5123082;27;20106;-74
2022/12/25 09:15:10;;;;;;;22.02;7.00;;;;;;;7.31;100.00;101093.53;5123150;27;20110;-71
2022/12/25 09:17:36;;;;;;;22.63;7.35;;;;;;;7.32;100.00;101109.38;5124329;28;20103;-74
2022/12/25 09:20:01;;;;;;;22.98;7.47;;;;;;;7.34;100.00;101117.31;5111170;28;20070;-73
2022/12/25 09:22:27;;;;;;;22.58;7.72;;;;;;;7.35;100.00;101118.19;5104253;28;20556;-73
2022/12/25 09:24:52;;;;;;;22.08;7.47;;;;;;;7.30;100.00;101118.97;5096328;28;20020;-73
2022/12/25 09:27:18;;;;;;;24.13;7.82;;;;;;;7.32;100.00;101119.91;5117877;28;20050;-72
2022/12/25 09:29:43;;;;;;;22.83;7.90;;;;;;;7.31;100.00;101107.59;5118132;27;20034;-72
2022/12/25 09:32:08;;;;;;;24.38;8.48;;;;;;;7.31;100.00;101101.41;5122757;27;20054;-71
2022/12/25 09:34:34;;;;;;;22.65;8.07;;;;;;;7.33;100.00;101097.09;5119348;27;20027;-75
2022/12/25 09:37:00;;;;;;;23.08;7.93;;;;;;;7.32;100.00;101092.69;5122447;27;20112;-76
2022/12/25 09:39:25;;;;;;;24.27;8.38;;;;;;;7.29;100.00;101058.44;5120781;27;20023;-71
2022/12/25 09:42:15;;;;;;;22.55;7.93;;;;;;;7.30;100.00;101066.34;5121335;27;20102;-77
2022/12/25 09:44:45;;;;;;;24.80;9.75;;;;;;;7.29;100.00;101082.97;5115711;27;20027;-76
2022/12/25 09:47:17;;;;;;;27.15;11.80;;;;;;;7.30;100.00;101087.41;5121774;27;20070;-71
2022/12/25 09:50:06;;;;;;;26.73;9.38;;;;;;;7.30;100.00;101082.13;5118046;27;20059;-75
2022/12/25 09:52:43;;;;;;;23.55;8.57;;;;;;;7.32;100.00;101083.06;5106933;27;20039;-75
2022/12/25 09:55:18;;;;;;;24.80;9.07;;;;;;;7.33;100.00;101073.44;5115000;27;20019;-76
2022/12/25 09:57:44;;;;;;;25.50;8.93;;;;;;;7.37;100.00;101058.59;5118968;27;20015;-71
2022/12/25 10:00:15;;;;;;;23.95;9.02;;;;;;;7.39;100.00;101065.66;5100812;27;20038;-76
2022/12/25 10:03:16;;;;;;;24.52;9.13;;;;;;;7.39;100.00;101062.16;5123092;27;20032;-71
2022/12/25 10:06:19;;;;;;;22.85;9.10;;;;;;;7.43;100.00;101058.75;5121854;27;20111;-77
2022/12/25 10:09:10;;;;;;;22.40;8.90;;;;;;;7.42;100.00;101047.31;5119827;27;20035;-76
2022/12/25 10:11:58;;;;;;;26.73;10.07;;;;;;;7.44;100.00;101044.72;5120096;27;20027;-78
2022/12/25 10:14:35;;;;;;;30.35;15.25;;;;;;;7.46;100.00;101043.91;5118522;27;20417;-74
2022/12/25 10:17:25;;;;;;;30.23;14.80;;;;;;;7.49;100.00;101037.81;5102210;27;20023;-74
2022/12/25 10:20:18;;;;;;;31.00;15.00;;;;;;;7.53;100.00;101039.66;5119813;27;20035;-71
2022/12/25 10:22:46;;;;;;;;;;;;;;;7.57;100.00;101049.38;5122289;27;20055;-73
2022/12/25 10:25:18;;;;;;;29.70;15.20;;;;;;;7.56;100.00;101038.81;5118350;27;19931;-75
2022/12/25 10:27:45;;;;;;;31.60;17.33;;;;;;;7.59;100.00;101036.25;5122999;27;20030;-71
2022/12/25 10:30:16;;;;;;;27.42;12.45;;;;;;;7.55;100.00;101035.28;5120118;27;20027;-71
2022/12/25 10:32:44;;;;;;;27.80;11.88;;;;;;;7.54;100.00;101035.28;5115850;27;20032;-71
2022/12/25 10:35:12;;;;;;;31.80;16.60;;;;;;;7.50;100.00;101044.84;5121424;27;20039;-72
2022/12/25 10:37:37;;;;;;;31.15;16.05;;;;;;;7.47;100.00;101032.53;5121908;27;20156;-72
2022/12/25 10:40:29;;;;;;;29.90;14.85;;;;;;;7.47;100.00;101031.63;5100439;28;20111;-72
2022/12/25 10:43:09;;;;;;;25.88;11.55;;;;;;;7.47;100.00;101034.25;5118827;27;20031;-72
2022/12/25 10:45:45;;;;;;;26.85;11.38;;;;;;;7.45;100.00;101041.22;5118737;27;20027;-72
2022/12/25 10:48:25;;;;;;;24.92;10.57;;;;;;;7.45;100.00;101030.72;5120346;27;20054;-72
2022/12/25 10:50:51;;;;;;;27.52;12.25;;;;;;;7.43;100.00;101021.91;5119341;27;20048;-72
2022/12/25 10:53:20;;;;;;;29.63;13.23;;;;;;;7.46;100.00;101008.81;5120063;27;20102;-72
2022/12/25 10:56:00;;;;;;;28.25;14.05;;;;;;;7.45;100.00;100993.88;5120296;27;20022;-72
2022/12/25 10:58:26;;;;;;;25.67;11.85;;;;;;;7.45;100.00;100983.38;5121643;27;20043;-71
2022/12/25 11:01:20;;;;;;;26.27;11.75;;;;;;;7.46;100.00;100979.88;5123040;27;20024;-71
2022/12/25 11:03:50;;;;;;;26.80;11.10;;;;;;;7.46;100.00;100985.16;5095206;27;20049;-71
2022/12/25 11:06:25;;;;;;;25.65;11.40;;;;;;;7.49;100.00;100985.19;5124449;27;20023;-72
2022/12/25 11:08:55;;;;;;;27.48;11.95;;;;;;;7.48;100.00;100988.69;5126480;27;20030;-71
2022/12/25 11:11:21;;;;;;;26.70;12.18;;;;;;;7.48;100.00;100994.84;5124649;27;20023;-71
2022/12/25 11:13:50;;;;;;;29.52;14.77;;;;;;;7.56;100.00;100999.34;5127103;27;20034;-71
2022/12/25 11:16:37;;;;;;;27.08;12.00;;;;;;;7.57;100.00;100983.63;5123984;27;20073;-71
2022/12/25 11:19:20;;;;;;;28.25;12.57;;;;;;;7.58;100.00;100980.09;5124488;27;20027;-71
2022/12/25 11:21:51;;;;;;;27.02;12.25;;;;;;;7.60;100.00;100972.25;5120445;27;20031;-71
2022/12/25 11:24:20;;;;;;;28.58;12.40;;;;;;;7.62;100.00;100960.00;5126515;27;20035;-72
2022/12/25 11:26:48;;;;;;;29.67;12.88;;;;;;;7.62;100.00;100954.75;5123739;27;20043;-72
2022/12/25 11:29:43;;;;;;;26.38;11.73;;;;;;;7.61;100.00;100942.44;5127184;27;20039;-70
2022/12/25 11:32:19;;;;;;;26.48;12.70;;;;;;;7.61;100.00;100927.53;5101284;27;20428;-71
2022/12/25 11:34:47;;;;;;;27.77;13.18;;;;;;;7.61;100.00;100938.06;5120173;27;20488;-71
2022/12/25 11:37:40;;;;;;;27.50;12.85;;;;;;;7.63;100.00;100940.72;5127198;27;20027;-71
2022/12/25 11:40:13;;;;;;;27.75;13.77;;;;;;;7.59;100.00;100931.91;5117665;27;20047;-71
2022/12/25 11:42:42;;;;;;;26.75;12.98;;;;;;;7.57;100.00;100925.75;5123235;27;20040;-72
2022/12/25 11:45:17;;;;;;;28.45;13.60;;;;;;;7.55;100.00;100922.16;5126531;27;20020;-71
2022/12/25 11:47:51;;;;;;;28.98;14.10;;;;;;;7.54;100.00;100925.66;5119582;27;20035;-72
2022/12/25 11:50:34;;;;;;;29.02;14.10;;;;;;;7.58;100.00;100923.97;5120092;27;20058;-71
2022/12/25 11:53:34;;;;;;;29.20;13.77;;;;;;;7.59;100.00;100920.50;5123983;27;20034;-72
2022/12/25 11:56:24;;;;;;;28.25;13.93;;;;;;;7.59;100.00;100902.09;5123424;27;20070;-71
2022/12/25 11:58:53;;;;;;;29.15;14.63;;;;;;;7.56;100.00;100904.63;5121089;27;20076;-72
2022/12/25 12:01:42;;;;;;;26.50;13.70;;;;;;;7.55;100.00;100895.88;5125916;27;20114;-72
2022/12/25 12:04:26;;;;;;;30.73;14.95;;;;;;;7.55;100.00;100900.25;5126177;27;20054;-72
2022/12/25 12:07:04;;;;;;;28.67;14.82;;;;;;;7.63;100.00;100904.78;5121459;27;20024;-72
2022/12/25 12:09:39;;;;;;;28.50;15.00;;;;;;;7.61;100.00;100901.22;5124103;27;20058;-72
2022/12/25 12:12:31;;;;;;;28.05;14.35;;;;;;;7.60;100.00;100903.84;5125266;27;20045;-73
2022/12/25 12:15:18;;;;;;;29.70;15.23;;;;;;;7.59;100.00;100909.97;5122557;27;20459;-72
2022/12/25 12:17:43;;;;;;;30.15;15.10;;;;;;;7.57;100.00;100909.94;5118904;27;20086;-72
2022/12/25 12:20:29;;;;;;;29.55;16.30;;;;;;;7.58;100.00;100903.81;5125731;27;20026;-73
2022/12/25 12:22:55;;;;;;;29.13;16.25;;;;;;;7.60;100.00;100902.09;5121265;27;20044;-72
2022/12/25 12:25:21;;;;;;;31.25;16.83;;;;;;;7.59;100.00;100899.44;5125227;27;20096;-73
2022/12/25 12:27:56;;;;;;;31.35;17.17;;;;;;;7.62;100.00;100904.75;5122461;27;20031;-72
2022/12/25 12:30:30;;;;;;;30.85;17.48;;;;;;;7.58;100.00;100885.38;5124807;27;20380;-72
2022/12/25 12:32:59;;;;;;;30.83;17.58;;;;;;;7.59;100.00;100881.91;5123667;27;20023;-72
2022/12/25 12:35:31;;;;;;;31.08;17.33;;;;;;;7.57;100.00;100875.75;5120990;27;20028;-73
2022/12/25 12:38:18;;;;;;;32.80;17.90;;;;;;;7.60;100.00;100865.28;5123303;27;20143;-72
2022/12/25 12:40:53;;;;;;;31.33;17.90;;;;;;;7.67;100.00;100858.34;5118308;27;20020;-72
2022/12/25 12:43:30;;;;;;;33.58;18.75;;;;;;;7.69;100.00;100856.66;5119434;27;20028;-72
2022/12/25 12:46:07;;;;;;;33.30;18.27;;;;;;;7.73;100.00;100865.47;5123673;27;20496;-72
2022/12/25 12:48:41;;;;;;;33.88;19.70;;;;;;;7.71;100.00;100868.06;5124603;27;20482;-72
2022/12/25 12:51:13;;;;;;;33.67;18.83;;;;;;;7.71;100.00;100869.81;5122073;27;20478;-71
2022/12/25 12:53:41;;;;;;;34.25;19.85;;;;;;;7.70;100.00;100865.41;5125547;27;20354;-73
2022/12/25 12:56:18;;;;;;;34.53;19.90;;;;;;;7.71;100.00;100865.44;5122458;27;20144;-72
2022/12/25 12:58:49;;;;;;;34.55;20.15;;;;;;;7.75;100.00;100850.59;5118330;27;20062;-72
2022/12/25 13:01:25;;;;;;;35.72;20.42;;;;;;;7.77;100.00;100857.63;5125307;27;20027;-72
2022/12/25 13:04:22;;;;;;;36.70;21.65;;;;;;;7.78;100.00;100853.28;5122576;27;20027;-72
2022/12/25 13:07:26;;;;;;;37.90;21.48;;;;;;;7.79;100.00;100855.03;5119329;27;20023;-72
2022/12/25 13:10:24;;;;;;;37.60;21.80;;;;;;;7.75;100.00;100843.59;5090198;27;20169;-72